Time;durP1;ratioP1;P1;durP2;ratioP2;P2;SDS_P1;SDS_P2;PMS_P1;PMS_P2;Temp;Humidity;BMP_temperature;BMP_pressure;BME280_temperature;BME280_humidity;BME280_pressure;Samples;Min_cycle;Max_cycle;Signal;HPM_P1;HPM_P2
2023/04/14 00:01:00;;;;;;;7.00;3.70;;;;;;;;;;5071859;28;20028;-74
2023/04/14 00:03:26;;;;;;;6.68;3.60;;;;;;;;;;5073184;28;20039;-73
2023/04/14 00:05:52;;;;;;;8.70;3.90;;;;;;;;;;5073271;28;20025;-73
2023/04/14 00:08:18;;;;;;;8.07;3.60;;;;;;;;;;5072275;28;20051;-73
2023/04/14 00:10:44;;;;;;;6.97;3.25;;;;;;;;;;5072647;28;20544;-73
2023/04/14 00:13:10;;;;;;;9.20;3.78;;;;;;;;;;5073240;28;20033;-73
2023/04/14 00:15:36;;;;;;;6.78;3.45;;;;;;;;;;5073316;28;20025;-73
2023/04/14 00:18:02;;;;;;;6.43;3.42;;;;;;;;;;5072464;28;20032;-73
2023/04/14 00:20:28;;;;;;;7.53;3.28;;;;;;;;;;5073094;28;20024;-75
2023/04/14 00:22:54;;;;;;;8.07;3.58;;;;;;;;;;5072767;28;20094;-73
2023/04/14 00:25:20;;;;;;;6.90;3.30;;;;;;;;;;5072855;28;20467;-75
2023/04/14 00:27:46;;;;;;;12.60;4.15;;;;;;;;;;5072355;28;20028;-74
2023/04/14 00:30:12;;;;;;;7.88;3.55;;;;;;;;;;5072923;28;20423;-74
2023/04/14 00:32:39;;;;;;;9.23;4.47;;;;;;;;;;5071427;28;20024;-73
2023/04/14 00:35:05;;;;;;;8.32;3.90;;;;;;;;;;5072624;28;20059;-74
2023/04/14 00:37:31;;;;;;;7.43;4.32;;;;;;;;;;5071823;28;20025;-73
2023/04/14 00:39:57;;;;;;;9.63;4.45;;;;;;;;;;5072237;28;20111;-73
2023/04/14 00:42:23;;;;;;;8.93;3.92;;;;;;;;;;5072429;28;20107;-72
2023/04/14 00:44:50;;;;;;;10.95;4.18;;;;;;;;;;5072386;28;20555;-72
2023/04/14 00:47:16;;;;;;;8.32;3.60;;;;;;;;;;5071753;28;20490;-74
2023/04/14 00:49:43;;;;;;;7.35;3.53;;;;;;;;;;5072262;28;20116;-75
2023/04/14 00:52:10;;;;;;;7.40;3.67;;;;;;;;;;5072404;28;20032;-74
2023/04/14 00:54:37;;;;;;;6.95;3.53;;;;;;;;;;5072125;28;20035;-73
2023/04/14 00:57:03;;;;;;;5.85;3.15;;;;;;;;;;5072010;28;20039;-75
2023/04/14 00:59:29;;;;;;;7.35;4.07;;;;;;;;;;5072100;28;20028;-74
2023/04/14 01:01:56;;;;;;;8.98;3.55;;;;;;;;;;5092078;28;20028;-74
2023/04/14 01:04:22;;;;;;;7.10;3.72;;;;;;;;;;5092550;28;20024;-73
2023/04/14 01:06:48;;;;;;;6.93;3.70;;;;;;;;;;5092041;28;20440;-73
2023/04/14 01:09:15;;;;;;;6.90;3.30;;;;;;;;;;5088825;28;20027;-74
2023/04/14 01:11:54;;;;;;;10.13;3.28;;;;;;;;;;5090631;28;20074;-75
2023/04/14 01:14:30;;;;;;;5.53;3.30;;;;;;;;;;5089452;28;20554;-74
2023/04/14 01:17:00;;;;;;;7.53;3.58;;;;;;;;;;5092123;28;20123;-74
2023/04/14 01:19:29;;;;;;;6.75;3.20;;;;;;;;;;5091642;28;20434;-74
2023/04/14 01:21:57;;;;;;;8.20;3.60;;;;;;;;;;5091617;28;20020;-73
2023/04/14 01:24:46;;;;;;;8.73;4.13;;;;;;;;;;5091852;28;20031;-73
2023/04/14 01:27:21;;;;;;;9.02;3.30;;;;;;;;;;5091455;28;20020;-74
2023/04/14 01:29:47;;;;;;;7.97;3.28;;;;;;;;;;5091694;28;20026;-73
2023/04/14 01:32:18;;;;;;;5.88;3.30;;;;;;;;;;5092240;28;20024;-74
2023/04/14 01:35:04;;;;;;;10.57;4.28;;;;;;;;;;5092223;28;20035;-74
2023/04/14 01:37:33;;;;;;;8.43;3.67;;;;;;;;;;5091512;28;20028;-74
2023/04/14 01:40:19;;;;;;;5.10;3.17;;;;;;;;;;5090417;28;20501;-73
2023/04/14 01:42:47;;;;;;;9.25;4.28;;;;;;;;;;5092084;28;20264;-74
2023/04/14 01:45:19;;;;;;;6.70;3.78;;;;;;;;;;5092141;28;20016;-74
2023/04/14 01:47:45;;;;;;;6.90;3.42;;;;;;;;;;5090674;28;20488;-74
2023/04/14 01:50:12;;;;;;;9.02;3.60;;;;;;;;;;5091707;28;20449;-74
2023/04/14 01:52:38;;;;;;;7.47;3.20;;;;;;;;;;5091486;28;20490;-74
2023/04/14 01:55:06;;;;;;;10.82;3.83;;;;;;;;;;5091520;28;20036;-74
2023/04/14 01:57:33;;;;;;;6.75;3.67;;;;;;;;;;5090564;28;20510;-75
2023/04/14 02:00:00;;;;;;;8.18;3.60;;;;;;;;;;5091512;28;20032;-74
2023/04/14 02:02:27;;;;;;;7.47;3.53;;;;;;;;;;5091309;28;20024;-74
2023/04/14 02:04:54;;;;;;;8.57;3.42;;;;;;;;;;5091150;28;20019;-73
2023/04/14 02:07:21;;;;;;;7.20;3.58;;;;;;;;;;5090465;28;20043;-74
2023/04/14 02:09:47;;;;;;;7.50;3.83;;;;;;;;;;5091208;28;20024;-74
2023/04/14 02:12:13;;;;;;;9.00;3.72;;;;;;;;;;5091478;28;20027;-73
2023/04/14 02:14:41;;;;;;;7.88;3.00;;;;;;;;;;5091384;28;20042;-73
2023/04/14 02:17:10;;;;;;;6.93;3.25;;;;;;;;;;5090571;28;20028;-71
2023/04/14 02:19:37;;;;;;;7.15;3.28;;;;;;;;;;5091397;28;20024;-74
2023/04/14 02:22:03;;;;;;;7.70;3.72;;;;;;;;;;5091202;28;20487;-73
2023/04/14 02:24:29;;;;;;;7.10;3.53;;;;;;;;;;5091429;28;20065;-75
2023/04/14 02:27:02;;;;;;;7.57;3.70;;;;;;;;;;5090997;28;20493;-74
2023/04/14 02:29:28;;;;;;;7.57;3.35;;;;;;;;;;5091048;28;20032;-74
2023/04/14 02:31:59;;;;;;;7.50;3.70;;;;;;;;;;5091554;28;20045;-73
2023/04/14 02:34:27;;;;;;;8.90;3.30;;;;;;;;;;5094487;28;20016;-73
2023/04/14 02:36:56;;;;;;;8.85;3.47;;;;;;;;;;5096003;28;20028;-74
2023/04/14 02:39:26;;;;;;;9.30;3.47;;;;;;;;;;5095133;28;20062;-74
2023/04/14 02:41:56;;;;;;;4.95;3.05;;;;;;;;;;5095876;28;20061;-74
2023/04/14 02:44:24;;;;;;;5.18;3.38;;;;;;;;;;5095677;28;20016;-74
2023/04/14 02:47:05;;;;;;;8.45;2.95;;;;;;;;;;5095826;28;20032;-76
2023/04/14 02:49:34;;;;;;;9.88;3.08;;;;;;;;;;5095632;28;20020;-73
2023/04/14 02:52:00;;;;;;;8.85;3.70;;;;;;;;;;5095030;28;20028;-75
2023/04/14 02:54:27;;;;;;;5.57;3.38;;;;;;;;;;5094861;28;20024;-74
2023/04/14 02:56:53;;;;;;;9.20;3.65;;;;;;;;;;5094841;28;20024;-72
2023/04/14 02:59:21;;;;;;;7.95;4.22;;;;;;;;;;5092711;28;20031;-74
2023/04/14 03:01:48;;;;;;;9.18;4.43;;;;;;;;;;5094977;28;20043;-73
2023/04/14 03:04:14;;;;;;;9.27;5.28;;;;;;;;;;5094965;28;20028;-73
2023/04/14 03:06:40;;;;;;;9.05;5.28;;;;;;;;;;5094750;28;20069;-73
2023/04/14 03:09:07;;;;;;;8.07;5.05;;;;;;;;;;5093920;28;20030;-73
2023/04/14 03:11:34;;;;;;;10.18;5.68;;;;;;;;;;5094589;28;20020;-73
2023/04/14 03:14:00;;;;;;;11.23;5.63;;;;;;;;;;5094625;28;20040;-73
2023/04/14 03:16:28;;;;;;;12.20;6.20;;;;;;;;;;5094732;28;20047;-73
2023/04/14 03:18:54;;;;;;;14.55;6.55;;;;;;;;;;5093936;28;20685;-73
2023/04/14 03:21:20;;;;;;;11.35;6.70;;;;;;;;;;5094481;28;20020;-75
2023/04/14 03:23:47;;;;;;;10.73;6.07;;;;;;;;;;5094303;28;20063;-74
2023/04/14 03:26:17;;;;;;;12.70;6.82;;;;;;;;;;5094310;28;20055;-73
2023/04/14 03:28:47;;;;;;;17.90;7.65;;;;;;;;;;5091972;28;20020;-74
2023/04/14 03:31:15;;;;;;;14.75;7.75;;;;;;;;;;5094240;28;20044;-74
2023/04/14 03:33:42;;;;;;;13.82;7.20;;;;;;;;;;5094088;28;20444;-73
2023/04/14 03:36:09;;;;;;;12.25;8.18;;;;;;;;;;5094030;28;20473;-73
2023/04/14 03:38:36;;;;;;;15.57;8.25;;;;;;;;;;5093178;28;20036;-73
2023/04/14 03:41:04;;;;;;;15.70;8.07;;;;;;;;;;5093905;28;20066;-73
2023/04/14 03:43:32;;;;;;;14.25;7.72;;;;;;;;;;5093906;28;20028;-73
2023/04/14 03:45:58;;;;;;;16.40;8.52;;;;;;;;;;5093169;28;20025;-73
2023/04/14 03:48:26;;;;;;;13.30;7.88;;;;;;;;;;5092879;28;20445;-73
2023/04/14 03:50:53;;;;;;;13.05;7.13;;;;;;;;;;5093557;28;20062;-73
2023/04/14 03:53:20;;;;;;;12.45;7.75;;;;;;;;;;5094235;28;20481;-73
2023/04/14 03:55:47;;;;;;;11.70;8.02;;;;;;;;;;5093866;28;20100;-73
2023/04/14 03:58:15;;;;;;;13.52;8.52;;;;;;;;;;5092875;28;20058;-73
2023/04/14 04:00:41;;;;;;;16.60;8.77;;;;;;;;;;5092191;28;20024;-73
2023/04/14 04:03:09;;;;;;;13.60;7.72;;;;;;;;;;5093597;28;20107;-75
2023/04/14 04:05:38;;;;;;;16.83;8.77;;;;;;;;;;5093518;28;20042;-73
2023/04/14 04:08:05;;;;;;;15.85;9.20;;;;;;;;;;5092440;28;20381;-74
2023/04/14 04:10:34;;;;;;;13.55;7.90;;;;;;;;;;5093489;28;20047;-72
2023/04/14 04:13:02;;;;;;;12.48;7.82;;;;;;;;;;5093340;28;20028;-74
2023/04/14 04:15:28;;;;;;;14.52;7.90;;;;;;;;;;5094231;28;20030;-73
2023/04/14 04:17:55;;;;;;;13.15;7.68;;;;;;;;;;5092631;28;20032;-73
2023/04/14 04:20:22;;;;;;;13.65;7.85;;;;;;;;;;5091958;28;20020;-73
2023/04/14 04:22:50;;;;;;;11.10;7.45;;;;;;;;;;5092959;28;20028;-73
2023/04/14 04:25:16;;;;;;;10.80;8.27;;;;;;;;;;5093034;28;20024;-74
2023/04/14 04:27:42;;;;;;;14.60;7.40;;;;;;;;;;5092368;28;20544;-75
2023/04/14 04:30:09;;;;;;;11.00;6.70;;;;;;;;;;5093028;28;20034;-75
2023/04/14 04:32:38;;;;;;;9.95;6.70;;;;;;;;;;5092948;28;20081;-74
2023/04/14 04:35:07;;;;;;;16.48;8.27;;;;;;;;;;5092667;28;20019;-74
2023/04/14 04:37:34;;;;;;;17.75;8.00;;;;;;;;;;5092094;28;20038;-74
2023/04/14 04:40:00;;;;;;;12.18;7.60;;;;;;;;;;5093140;28;20021;-74
2023/04/14 04:42:26;;;;;;;16.73;8.88;;;;;;;;;;5092788;28;20078;-74
2023/04/14 04:44:52;;;;;;;17.55;9.48;;;;;;;;;;5092933;28;20016;-73
2023/04/14 04:47:18;;;;;;;15.15;9.63;;;;;;;;;;5092102;28;20024;-73
2023/04/14 04:49:44;;;;;;;15.18;9.43;;;;;;;;;;5092505;28;20051;-73
2023/04/14 04:52:10;;;;;;;19.38;10.38;;;;;;;;;;5076816;28;20059;-73
2023/04/14 04:54:36;;;;;;;12.95;9.55;;;;;;;;;;5072355;28;20032;-73
2023/04/14 04:57:02;;;;;;;14.05;10.02;;;;;;;;;;5070999;28;20017;-73
2023/04/14 04:59:29;;;;;;;18.13;10.80;;;;;;;;;;5071523;28;20017;-72
2023/04/14 05:01:55;;;;;;;17.45;10.65;;;;;;;;;;5072333;28;20028;-72
2023/04/14 05:04:21;;;;;;;17.60;11.35;;;;;;;;;;5072179;28;20027;-72
2023/04/14 05:06:47;;;;;;;17.50;11.57;;;;;;;;;;5071875;28;20032;-74
2023/04/14 05:09:13;;;;;;;15.00;11.60;;;;;;;;;;5069879;28;20031;-74
2023/04/14 05:11:39;;;;;;;18.08;12.13;;;;;;;;;;5072106;28;20025;-73
2023/04/14 05:14:05;;;;;;;20.00;13.10;;;;;;;;;;5072248;28;20036;-73
2023/04/14 05:16:32;;;;;;;20.92;12.45;;;;;;;;;;5071661;28;20493;-73
2023/04/14 05:19:04;;;;;;;20.27;14.27;;;;;;;;;;5087684;28;20390;-74
2023/04/14 05:21:31;;;;;;;23.02;12.70;;;;;;;;;;5088756;28;20028;-74
2023/04/14 05:23:59;;;;;;;21.65;13.63;;;;;;;;;;5088607;28;20016;-73
2023/04/14 05:26:25;;;;;;;22.70;13.27;;;;;;;;;;5088408;28;20389;-76
2023/04/14 05:28:51;;;;;;;20.55;12.27;;;;;;;;;;5086137;28;20371;-73
2023/04/14 05:31:17;;;;;;;17.73;12.88;;;;;;;;;;5088052;28;20032;-72
2023/04/14 05:33:43;;;;;;;15.38;10.60;;;;;;;;;;5086757;28;20028;-73
2023/04/14 05:36:09;;;;;;;14.80;10.65;;;;;;;;;;5088407;28;20029;-73
2023/04/14 05:38:41;;;;;;;16.77;11.25;;;;;;;;;;5087197;28;20483;-73
2023/04/14 05:41:07;;;;;;;17.30;11.93;;;;;;;;;;5086897;28;20537;-73
2023/04/14 05:43:34;;;;;;;17.52;11.98;;;;;;;;;;5086781;28;20020;-74
2023/04/14 05:46:00;;;;;;;15.07;10.50;;;;;;;;;;5088179;28;20024;-74
2023/04/14 05:48:29;;;;;;;18.20;11.93;;;;;;;;;;5087538;28;20028;-72
2023/04/14 05:50:55;;;;;;;18.38;10.65;;;;;;;;;;5086942;28;20442;-73
2023/04/14 05:53:21;;;;;;;19.67;14.02;;;;;;;;;;5089347;28;20157;-73
2023/04/14 05:55:47;;;;;;;16.13;11.85;;;;;;;;;;5087752;28;20054;-75
2023/04/14 05:58:13;;;;;;;21.27;11.80;;;;;;;;;;5085667;28;20070;-75
2023/04/14 06:00:39;;;;;;;19.70;11.50;;;;;;;;;;5087749;28;20437;-74
2023/04/14 06:03:06;;;;;;;24.13;12.18;;;;;;;;;;5087910;28;20024;-73
2023/04/14 06:05:33;;;;;;;16.75;11.60;;;;;;;;;;5087856;28;20027;-73
2023/04/14 06:07:59;;;;;;;20.98;11.82;;;;;;;;;;5086969;28;20103;-72
2023/04/14 06:10:25;;;;;;;18.08;11.50;;;;;;;;;;5085871;28;20055;-72
2023/04/14 06:12:51;;;;;;;17.70;12.77;;;;;;;;;;5086100;28;20063;-72
2023/04/14 06:15:17;;;;;;;23.63;12.77;;;;;;;;;;5087127;28;20742;-71
2023/04/14 06:17:46;;;;;;;19.67;12.27;;;;;;;;;;5088633;28;20024;-72
2023/04/14 06:20:12;;;;;;;17.20;11.98;;;;;;;;;;5098986;28;20427;-73
2023/04/14 06:22:39;;;;;;;24.27;12.63;;;;;;;;;;5107055;28;20020;-73
2023/04/14 06:25:05;;;;;;;21.65;13.23;;;;;;;;;;5106298;28;20020;-73
2023/04/14 06:27:31;;;;;;;19.85;12.02;;;;;;;;;;5088407;28;20023;-73
2023/04/14 06:29:59;;;;;;;19.88;12.55;;;;;;;;;;5096261;28;20111;-73
2023/04/14 06:32:25;;;;;;;21.77;11.85;;;;;;;;;;5094059;28;20489;-72
2023/04/14 06:34:51;;;;;;;20.77;12.15;;;;;;;;;;5075648;28;20063;-73
2023/04/14 06:37:17;;;;;;;18.00;12.40;;;;;;;;;;5074547;28;20067;-73
2023/04/14 06:39:43;;;;;;;16.00;12.77;;;;;;;;;;5093693;28;20098;-74
2023/04/14 06:42:12;;;;;;;23.48;14.50;;;;;;;;;;5093717;28;20024;-72
2023/04/14 06:44:38;;;;;;;23.33;14.13;;;;;;;;;;5093752;28;20084;-73
2023/04/14 06:47:04;;;;;;;25.23;13.65;;;;;;;;;;5092841;28;20020;-73
2023/04/14 06:49:30;;;;;;;19.92;13.48;;;;;;;;;;5093333;28;20054;-74
2023/04/14 06:51:56;;;;;;;18.63;13.32;;;;;;;;;;5093537;28;20028;-73
2023/04/14 06:54:22;;;;;;;17.90;12.60;;;;;;;;;;5075233;28;20453;-74
2023/04/14 06:56:49;;;;;;;17.45;11.77;;;;;;;;;;5074939;28;20563;-74
2023/04/14 06:59:15;;;;;;;17.77;11.57;;;;;;;;;;5074245;28;20124;-72
2023/04/14 07:01:41;;;;;;;14.93;10.55;;;;;;;;;;5093239;28;20042;-74
2023/04/14 07:04:07;;;;;;;15.80;11.27;;;;;;;;;;5093351;28;20032;-72
2023/04/14 07:06:33;;;;;;;17.10;12.32;;;;;;;;;;5093456;28;20032;-73
2023/04/14 07:08:59;;;;;;;16.40;12.57;;;;;;;;;;5073892;28;20070;-72
2023/04/14 07:11:25;;;;;;;17.45;10.40;;;;;;;;;;5079917;28;20016;-74
2023/04/14 07:13:51;;;;;;;14.32;10.23;;;;;;;;;;5087616;28;20055;-73
2023/04/14 07:16:17;;;;;;;18.58;9.52;;;;;;;;;;5091436;28;20028;-72
2023/04/14 07:18:43;;;;;;;13.20;8.20;;;;;;;;;;5091640;28;20059;-72
2023/04/14 07:21:09;;;;;;;12.50;8.32;;;;;;;;;;5093239;28;20029;-73
2023/04/14 07:23:35;;;;;;;14.27;9.45;;;;;;;;;;5092948;28;20524;-71
2023/04/14 07:26:01;;;;;;;14.45;9.32;;;;;;;;;;5092791;28;20032;-73
2023/04/14 07:28:27;;;;;;;18.38;10.93;;;;;;;;;;5092041;28;20031;-73
2023/04/14 07:30:53;;;;;;;11.90;8.65;;;;;;;;;;5074688;28;20073;-73
2023/04/14 07:33:21;;;;;;;13.30;9.30;;;;;;;;;;5092727;28;20020;-74
2023/04/14 07:35:50;;;;;;;9.65;8.45;;;;;;;;;;5092812;28;20492;-72
2023/04/14 07:38:16;;;;;;;12.13;8.88;;;;;;;;;;5091882;28;20151;-73
2023/04/14 07:40:42;;;;;;;9.20;7.15;;;;;;;;;;5073658;28;20024;-73
2023/04/14 07:43:08;;;;;;;10.85;7.60;;;;;;;;;;5092846;28;20020;-74
2023/04/14 07:45:35;;;;;;;12.40;8.02;;;;;;;;;;5092831;28;20023;-73
2023/04/14 07:48:01;;;;;;;12.25;8.73;;;;;;;;;;5073649;28;20028;-73
2023/04/14 07:50:27;;;;;;;10.98;7.93;;;;;;;;;;5092705;28;20188;-73
2023/04/14 07:52:53;;;;;;;10.65;7.60;;;;;;;;;;5092527;28;20048;-72
2023/04/14 07:55:19;;;;;;;12.20;7.72;;;;;;;;;;5092376;28;20485;-72
2023/04/14 07:57:45;;;;;;;10.68;7.85;;;;;;;;;;5091468;28;20024;-71
2023/04/14 08:00:11;;;;;;;11.45;8.38;;;;;;;;;;5092166;28;20044;-71
2023/04/14 08:02:37;;;;;;;11.90;8.13;;;;;;;;;;5074058;28;20066;-72
2023/04/14 08:05:04;;;;;;;10.25;7.95;;;;;;;;;;5092104;28;20035;-73
2023/04/14 08:07:31;;;;;;;11.32;8.10;;;;;;;;;;5091578;28;20074;-75
2023/04/14 08:09:57;;;;;;;8.23;6.70;;;;;;;;;;5092203;28;20076;-71
2023/04/14 08:12:23;;;;;;;12.63;7.35;;;;;;;;;;5073852;28;20546;-73
2023/04/14 08:14:49;;;;;;;12.50;6.78;;;;;;;;;;5091993;28;20055;-73
2023/04/14 08:17:16;;;;;;;10.35;7.50;;;;;;;;;;5091157;28;20075;-73
2023/04/14 08:19:42;;;;;;;8.43;6.72;;;;;;;;;;5092083;28;20023;-73
2023/04/14 08:22:08;;;;;;;10.95;7.72;;;;;;;;;;5091851;28;20020;-72
2023/04/14 08:24:34;;;;;;;11.57;8.13;;;;;;;;;;5091785;28;20016;-72
2023/04/14 08:27:01;;;;;;;13.40;7.63;;;;;;;;;;5091613;28;20103;-73
2023/04/14 08:29:27;;;;;;;11.75;7.35;;;;;;;;;;5091257;28;20020;-75
2023/04/14 08:31:53;;;;;;;11.52;8.75;;;;;;;;;;5091695;28;20020;-74
2023/04/14 08:34:19;;;;;;;14.20;9.07;;;;;;;;;;5073504;28;20121;-72
2023/04/14 08:36:46;;;;;;;12.85;10.10;;;;;;;;;;5091451;28;20024;-74
2023/04/14 08:39:12;;;;;;;13.05;9.75;;;;;;;;;;5091205;28;20020;-71
2023/04/14 08:41:39;;;;;;;15.15;11.00;;;;;;;;;;5091439;28;20031;-72
2023/04/14 08:44:05;;;;;;;14.48;11.23;;;;;;;;;;5092203;28;20027;-72
2023/04/14 08:46:31;;;;;;;15.73;12.68;;;;;;;;;;5091462;28;20067;-73
2023/04/14 08:49:06;;;;;;;17.20;12.60;;;;;;;;;;5090522;28;20028;-74
2023/04/14 08:51:42;;;;;;;17.00;12.32;;;;;;;;;;5090720;28;20175;-73
2023/04/14 08:54:09;;;;;;;21.02;13.63;;;;;;;;;;5091383;28;20549;-72
2023/04/14 08:56:40;;;;;;;16.50;12.40;;;;;;;;;;5091315;28;20032;-71
2023/04/14 08:59:06;;;;;;;14.03;11.40;;;;;;;;;;5083824;28;20103;-74
2023/04/14 09:01:33;;;;;;;17.83;12.07;;;;;;;;;;5091198;28;20016;-73
2023/04/14 09:03:59;;;;;;;12.75;9.88;;;;;;;;;;5081033;28;20055;-72
2023/04/14 09:06:26;;;;;;;14.25;9.60;;;;;;;;;;5091256;28;20024;-72
2023/04/14 09:08:53;;;;;;;11.10;9.77;;;;;;;;;;5088980;28;20118;-72
2023/04/14 09:11:19;;;;;;;11.63;10.07;;;;;;;;;;5091095;28;20539;-72
2023/04/14 09:13:46;;;;;;;11.00;8.57;;;;;;;;;;5084877;28;20036;-73
2023/04/14 09:16:12;;;;;;;10.43;8.45;;;;;;;;;;5077860;28;20035;-75
2023/04/14 09:18:39;;;;;;;12.10;8.70;;;;;;;;;;5067903;28;20674;-73
2023/04/14 09:21:05;;;;;;;9.93;8.55;;;;;;;;;;5069015;28;20470;-73
2023/04/14 09:23:32;;;;;;;10.10;8.38;;;;;;;;;;5069244;28;20108;-73
2023/04/14 09:25:59;;;;;;;10.80;8.77;;;;;;;;;;5069874;28;20660;-74
2023/04/14 09:28:25;;;;;;;12.55;7.30;;;;;;;;;;5069435;28;20032;-72
2023/04/14 09:30:51;;;;;;;9.60;7.85;;;;;;;;;;5070236;28;20483;-73
2023/04/14 09:33:19;;;;;;;8.63;6.82;;;;;;;;;;5070563;28;20033;-72
2023/04/14 09:35:48;;;;;;;9.02;6.75;;;;;;;;;;5070932;28;20029;-73
2023/04/14 09:38:15;;;;;;;9.10;6.80;;;;;;;;;;5069977;28;20029;-73
2023/04/14 09:40:43;;;;;;;10.00;6.90;;;;;;;;;;5070543;28;20028;-73
2023/04/14 09:43:22;;;;;;;9.27;7.03;;;;;;;;;;5052429;28;20028;-72
2023/04/14 09:45:49;;;;;;;7.32;5.90;;;;;;;;;;5070609;28;20658;-73
2023/04/14 09:48:15;;;;;;;7.50;5.88;;;;;;;;;;5070149;28;20078;-71
2023/04/14 09:50:57;;;;;;;11.32;7.28;;;;;;;;;;5070783;28;20027;-72
2023/04/14 09:53:31;;;;;;;9.68;6.07;;;;;;;;;;5070792;28;20020;-72
2023/04/14 09:56:01;;;;;;;9.55;6.68;;;;;;;;;;5070486;28;20036;-72
2023/04/14 09:58:32;;;;;;;11.27;7.03;;;;;;;;;;5069330;28;20736;-73
2023/04/14 10:00:58;;;;;;;9.73;6.38;;;;;;;;;;5068458;28;20025;-74
2023/04/14 10:03:43;;;;;;;11.52;7.20;;;;;;;;;;5050947;28;20426;-71
2023/04/14 10:06:15;;;;;;;10.35;7.18;;;;;;;;;;5072379;28;20663;-71
2023/04/14 10:08:45;;;;;;;9.85;6.80;;;;;;;;;;5071241;28;20028;-72
2023/04/14 10:11:14;;;;;;;8.45;6.45;;;;;;;;;;5072616;28;20127;-73
2023/04/14 10:13:41;;;;;;;8.88;6.80;;;;;;;;;;5072558;28;20024;-72
2023/04/14 10:16:07;;;;;;;10.55;6.47;;;;;;;;;;5056287;28;20021;-71
2023/04/14 10:18:34;;;;;;;9.80;6.50;;;;;;;;;;5073093;28;20430;-72
2023/04/14 10:21:01;;;;;;;8.57;6.13;;;;;;;;;;5073853;28;20020;-74
2023/04/14 10:23:27;;;;;;;9.80;5.55;;;;;;;;;;5074073;28;20025;-72
2023/04/14 10:25:54;;;;;;;7.72;5.45;;;;;;;;;;5074199;28;20428;-72
2023/04/14 10:28:22;;;;;;;8.85;5.57;;;;;;;;;;5073079;28;20086;-73
2023/04/14 10:30:49;;;;;;;8.65;6.05;;;;;;;;;;5073788;28;20025;-73
2023/04/14 10:33:15;;;;;;;7.97;5.15;;;;;;;;;;5073794;28;20054;-73
2023/04/14 10:35:45;;;;;;;8.98;6.05;;;;;;;;;;5073425;28;20490;-73
2023/04/14 10:38:12;;;;;;;7.63;5.67;;;;;;;;;;5073087;28;20040;-72
2023/04/14 10:40:47;;;;;;;6.97;5.53;;;;;;;;;;5073617;28;20278;-73
2023/04/14 10:43:13;;;;;;;7.47;5.72;;;;;;;;;;5073354;28;20027;-72
2023/04/14 10:45:58;;;;;;;7.15;5.47;;;;;;;;;;5073585;28;20029;-73
2023/04/14 10:48:32;;;;;;;9.07;5.85;;;;;;;;;;5072906;28;20057;-72
2023/04/14 10:50:58;;;;;;;7.15;5.85;;;;;;;;;;5073445;28;20502;-73
2023/04/14 10:53:25;;;;;;;8.48;5.43;;;;;;;;;;5073332;28;20074;-75
2023/04/14 10:55:54;;;;;;;7.65;5.00;;;;;;;;;;5073377;28;20111;-72
2023/04/14 10:58:21;;;;;;;6.18;5.07;;;;;;;;;;5072641;28;20033;-72
2023/04/14 11:00:47;;;;;;;8.77;5.70;;;;;;;;;;5073416;28;20028;-72
2023/04/14 11:03:16;;;;;;;6.00;4.95;;;;;;;;;;5073534;28;20016;-74
2023/04/14 11:05:48;;;;;;;9.65;6.00;;;;;;;;;;5073460;28;20021;-74
2023/04/14 11:08:16;;;;;;;6.88;4.95;;;;;;;;;;5054523;28;20028;-73
2023/04/14 11:10:48;;;;;;;8.35;5.45;;;;;;;;;;5073032;28;20088;-73
2023/04/14 11:13:14;;;;;;;6.22;4.97;;;;;;;;;;5073100;28;20036;-73
2023/04/14 11:15:48;;;;;;;8.23;4.97;;;;;;;;;;5073138;28;20020;-73
2023/04/14 11:18:15;;;;;;;5.03;4.50;;;;;;;;;;5076998;28;20528;-73
2023/04/14 11:20:41;;;;;;;6.45;4.45;;;;;;;;;;5090119;28;20020;-73
2023/04/14 11:23:08;;;;;;;5.75;4.45;;;;;;;;;;5092843;28;20394;-74
2023/04/14 11:25:34;;;;;;;5.60;4.45;;;;;;;;;;5092784;28;20020;-73
2023/04/14 11:28:02;;;;;;;7.80;5.40;;;;;;;;;;5073953;28;20031;-73
2023/04/14 11:30:28;;;;;;;8.73;5.13;;;;;;;;;;5092832;28;20053;-74
2023/04/14 11:32:56;;;;;;;6.38;4.32;;;;;;;;;;5092889;28;20394;-72
2023/04/14 11:35:30;;;;;;;7.75;4.35;;;;;;;;;;5092815;28;20123;-72
2023/04/14 11:37:56;;;;;;;5.15;3.88;;;;;;;;;;5091863;28;20028;-75
2023/04/14 11:40:23;;;;;;;5.55;4.75;;;;;;;;;;5092728;28;20386;-73
2023/04/14 11:42:53;;;;;;;7.55;4.53;;;;;;;;;;5084449;28;20054;-74
2023/04/14 11:45:20;;;;;;;6.70;4.87;;;;;;;;;;5077147;28;20125;-73
2023/04/14 11:47:49;;;;;;;6.70;4.30;;;;;;;;;;5091464;28;20076;-74
2023/04/14 11:50:16;;;;;;;7.63;4.60;;;;;;;;;;5081699;28;20398;-73
2023/04/14 11:52:46;;;;;;;7.25;4.70;;;;;;;;;;5055420;28;20028;-76
2023/04/14 11:55:13;;;;;;;6.00;4.78;;;;;;;;;;5072323;28;20028;-73
2023/04/14 11:57:43;;;;;;;5.80;5.15;;;;;;;;;;5072344;28;20028;-72
2023/04/14 12:00:10;;;;;;;6.55;4.72;;;;;;;;;;5092175;28;20044;-72
2023/04/14 12:02:36;;;;;;;6.38;5.25;;;;;;;;;;5091787;28;20030;-71
2023/04/14 12:05:02;;;;;;;5.72;4.15;;;;;;;;;;5091522;28;20034;-71
2023/04/14 12:07:29;;;;;;;7.63;4.00;;;;;;;;;;5091236;28;20032;-72
2023/04/14 12:09:56;;;;;;;7.55;5.20;;;;;;;;;;5092217;28;20061;-72
2023/04/14 12:12:22;;;;;;;5.43;4.63;;;;;;;;;;5073788;28;20489;-72
2023/04/14 12:14:49;;;;;;;5.60;5.10;;;;;;;;;;5092096;28;20043;-73
2023/04/14 12:17:17;;;;;;;5.40;4.90;;;;;;;;;;5091214;28;20417;-75
2023/04/14 12:19:44;;;;;;;8.20;5.55;;;;;;;;;;5092071;28;20020;-73
2023/04/14 12:22:10;;;;;;;6.45;5.25;;;;;;;;;;5091671;28;20024;-73
2023/04/14 12:24:37;;;;;;;10.55;6.20;;;;;;;;;;5092135;28;20511;-73
2023/04/14 12:27:05;;;;;;;7.00;5.00;;;;;;;;;;5090825;28;20027;-74
2023/04/14 12:29:34;;;;;;;8.63;6.40;;;;;;;;;;5091403;28;20469;-70
2023/04/14 12:32:01;;;;;;;10.00;6.55;;;;;;;;;;5091842;28;20020;-73
2023/04/14 12:34:30;;;;;;;8.60;6.13;;;;;;;;;;5091298;28;20050;-73
2023/04/14 12:36:56;;;;;;;8.93;6.72;;;;;;;;;;5089430;28;20086;-72
2023/04/14 12:39:25;;;;;;;8.88;7.60;;;;;;;;;;5084339;28;20432;-72
2023/04/14 12:41:51;;;;;;;14.40;7.53;;;;;;;;;;5061749;28;20130;-71
2023/04/14 12:44:18;;;;;;;9.07;6.65;;;;;;;;;;5083326;28;20512;-71
2023/04/14 12:46:54;;;;;;;7.57;6.78;;;;;;;;;;5090021;28;20024;-71
2023/04/14 12:49:30;;;;;;;11.05;8.23;;;;;;;;;;5089654;28;20066;-73
2023/04/14 12:51:56;;;;;;;9.65;7.38;;;;;;;;;;5091336;28;20498;-73
2023/04/14 12:54:22;;;;;;;10.20;7.95;;;;;;;;;;5074930;28;20100;-72
2023/04/14 12:56:48;;;;;;;10.25;8.10;;;;;;;;;;5069087;28;20111;-72
2023/04/14 12:59:14;;;;;;;10.75;7.25;;;;;;;;;;5068309;28;20080;-72
2023/04/14 13:01:40;;;;;;;9.63;7.68;;;;;;;;;;5069221;28;20386;-72
2023/04/14 13:04:06;;;;;;;8.07;6.85;;;;;;;;;;5069796;28;20467;-72
2023/04/14 13:06:32;;;;;;;8.45;7.22;;;;;;;;;;5069661;28;20027;-71
2023/04/14 13:08:59;;;;;;;9.75;7.72;;;;;;;;;;5051030;28;20025;-71
2023/04/14 13:11:25;;;;;;;7.78;6.85;;;;;;;;;;5070858;28;20028;-72
2023/04/14 13:13:54;;;;;;;11.20;8.73;;;;;;;;;;5080326;28;20399;-72
2023/04/14 13:16:20;;;;;;;10.43;8.02;;;;;;;;;;5091219;28;20016;-71
2023/04/14 13:18:47;;;;;;;7.97;7.18;;;;;;;;;;5089956;28;20020;-73
2023/04/14 13:21:13;;;;;;;10.80;7.30;;;;;;;;;;5090926;28;20077;-71
2023/04/14 13:23:39;;;;;;;8.77;7.88;;;;;;;;;;5091158;28;20065;-71
2023/04/14 13:26:05;;;;;;;8.50;7.63;;;;;;;;;;5091078;28;20094;-71
2023/04/14 13:28:31;;;;;;;11.82;7.68;;;;;;;;;;5090133;28;20016;-71
2023/04/14 13:30:57;;;;;;;9.20;7.63;;;;;;;;;;5091192;28;20605;-72
2023/04/14 13:33:24;;;;;;;9.05;7.50;;;;;;;;;;5091002;28;20026;-72
2023/04/14 13:35:51;;;;;;;8.60;6.90;;;;;;;;;;5073146;28;20031;-72
2023/04/14 13:38:17;;;;;;;8.30;6.22;;;;;;;;;;5090027;28;20028;-72
2023/04/14 13:40:44;;;;;;;7.65;6.85;;;;;;;;;;5094781;28;20017;-72
2023/04/14 13:43:16;;;;;;;9.27;6.30;;;;;;;;;;5094904;28;20012;-72
2023/04/14 13:45:42;;;;;;;8.60;6.75;;;;;;;;;;5094918;28;20013;-72
2023/04/14 13:48:08;;;;;;;8.40;7.15;;;;;;;;;;5092314;28;20062;-72
2023/04/14 13:50:34;;;;;;;8.15;7.00;;;;;;;;;;5095072;28;20024;-71
2023/04/14 13:53:00;;;;;;;8.60;7.03;;;;;;;;;;5095337;28;20051;-72
2023/04/14 13:55:26;;;;;;;7.07;6.38;;;;;;;;;;5094764;28;20024;-72
2023/04/14 13:57:52;;;;;;;8.57;6.93;;;;;;;;;;5078655;28;20032;-72
2023/04/14 14:00:19;;;;;;;14.57;9.13;;;;;;;;;;5074437;28;20383;-71
2023/04/14 14:02:45;;;;;;;8.95;6.35;;;;;;;;;;5074639;28;20453;-74
2023/04/14 14:05:11;;;;;;;6.35;5.72;;;;;;;;;;5056591;28;20024;-73
2023/04/14 14:07:37;;;;;;;7.47;6.10;;;;;;;;;;5072831;28;20059;-74
2023/04/14 14:10:07;;;;;;;8.05;6.03;;;;;;;;;;5073583;28;20031;-74
2023/04/14 14:12:33;;;;;;;8.57;7.00;;;;;;;;;;5076001;28;20050;-72
2023/04/14 14:14:59;;;;;;;7.55;6.75;;;;;;;;;;5078363;28;20470;-72
2023/04/14 14:17:26;;;;;;;6.78;5.32;;;;;;;;;;5075972;28;20551;-72
2023/04/14 14:19:52;;;;;;;7.05;6.35;;;;;;;;;;5077680;28;20028;-72
2023/04/14 14:22:18;;;;;;;7.88;7.10;;;;;;;;;;5077998;28;20021;-73
2023/04/14 14:24:44;;;;;;;6.57;5.72;;;;;;;;;;5075983;28;20024;-72
2023/04/14 14:27:11;;;;;;;7.47;6.68;;;;;;;;;;5077168;28;20035;-74
2023/04/14 14:29:37;;;;;;;8.32;7.50;;;;;;;;;;5076183;28;20511;-74
2023/04/14 14:32:03;;;;;;;11.15;8.30;;;;;;;;;;5079285;28;20044;-73
2023/04/14 14:34:29;;;;;;;9.45;7.28;;;;;;;;;;5076913;28;20021;-74